createdAt,value
2019-06-10T00:01:42.794Z,100355.70
2019-06-10T00:06:46.589Z,100353.00
2019-06-10T00:11:51.426Z,100353.00
2019-06-10T00:16:56.783Z,100347.61
2019-06-10T00:22:02.427Z,100342.59
2019-06-10T00:27:07.178Z,100342.59
2019-06-10T00:32:13.122Z,100335.75
2019-06-10T00:37:17.285Z,100326.30
2019-06-10T00:42:21.589Z,100323.95
2019-06-10T00:47:25.503Z,100317.70
2019-06-10T00:52:30.848Z,100319.70
2019-06-10T00:57:34.887Z,100319.70
2019-06-10T01:02:41.055Z,100314.52
2019-06-10T01:07:44.201Z,100290.16
2019-06-10T01:12:47.989Z,100285.62
2019-06-10T01:17:51.821Z,100280.62
2019-06-10T01:22:55.630Z,100282.27
2019-06-10T01:28:00.598Z,100282.27
2019-06-10T01:33:04.393Z,100299.16
2019-06-10T01:38:08.288Z,100305.56
2019-06-10T01:43:13.902Z,100305.56
2019-06-10T01:48:17.962Z,100270.47
2019-06-10T01:53:22.205Z,100270.47
2019-06-10T01:58:26.169Z,100254.42
2019-06-10T02:03:31.472Z,100272.32
2019-06-10T02:08:35.503Z,100270.77
2019-06-10T02:13:40.933Z,100261.33
2019-06-10T02:18:56.847Z,100263.52
2019-06-10T02:23:52.045Z,100263.52
2019-06-10T02:28:56.198Z,100248.98
2019-06-10T02:34:02.563Z,100245.44
2019-06-10T02:39:07.739Z,100229.94
2019-06-10T02:44:17.210Z,100220.14
2019-06-10T02:49:30.254Z,100198.74
2019-06-10T02:54:30.413Z,100197.39
2019-06-10T02:59:31.654Z,100197.39
2019-06-10T03:04:37.486Z,100173.86
2019-06-10T03:09:39.187Z,100165.91
2019-06-10T03:14:42.995Z,100166.22
2019-06-10T03:19:50.347Z,100166.22
2019-06-10T03:24:52.466Z,100182.75
2019-06-10T03:29:56.268Z,100182.75
2019-06-10T03:35:00.165Z,100193.05
2019-06-10T03:40:04.396Z,100180.20
2019-06-10T03:45:08.544Z,100161.73
2019-06-10T03:50:13.228Z,100161.73
2019-06-10T03:55:17.342Z,100171.38
2019-06-10T04:00:21.944Z,100176.16
2019-06-10T04:05:28.377Z,100160.26
2019-06-10T04:10:32.710Z,100185.52
2019-06-10T04:15:36.558Z,100185.52
2019-06-10T04:20:42.658Z,100175.03
2019-06-10T04:25:45.905Z,100168.06
2019-06-10T04:30:49.688Z,100177.08
2019-06-10T04:35:53.532Z,100184.02
2019-06-10T04:40:57.319Z,100189.43
2019-06-10T04:46:02.349Z,100156.56
2019-06-10T04:51:06.450Z,100178.72
2019-06-10T04:56:12.259Z,100178.72
2019-06-10T05:01:15.788Z,100170.63
2019-06-10T05:06:19.594Z,100174.88
2019-06-10T05:11:24.254Z,100174.88
2019-06-10T05:16:32.224Z,100160.04
2019-06-10T05:21:34.507Z,100152.64
2019-06-10T05:26:42.027Z,100148.45
2019-06-10T05:31:45.110Z,100148.45
2019-06-10T05:36:49.035Z,100146.67
2019-06-10T05:41:53.190Z,100167.16
2019-06-10T05:46:57.076Z,100165.96
2019-06-10T05:52:02.030Z,100155.63
2019-06-10T05:57:05.952Z,100164.61
2019-06-10T06:02:09.750Z,100161.48
2019-06-10T06:07:13.532Z,100154.05
2019-06-10T06:12:17.347Z,100154.05
2019-06-10T06:17:23.445Z,100148.84
2019-06-10T06:22:27.418Z,100152.13
2019-06-10T06:27:33.384Z,100139.98
2019-06-10T06:32:38.091Z,100125.84
2019-06-10T06:37:42.845Z,100140.20
2019-06-10T06:42:46.816Z,100140.20
2019-06-10T06:47:52.781Z,100151.97
2019-06-10T06:53:25.612Z,100151.97
2019-06-10T06:58:03.392Z,100148.84
2019-06-10T07:03:07.395Z,100146.41
2019-06-10T07:08:13.157Z,100162.59
2019-06-10T07:13:16.783Z,100156.06
2019-06-10T07:18:23.108Z,100156.06
2019-06-10T07:23:26.175Z,100148.81
2019-06-10T07:28:32.410Z,100148.67
2019-06-10T07:33:37.861Z,100138.67
2019-06-10T07:38:46.384Z,100138.67
2019-06-10T07:43:49.724Z,100125.70
2019-06-10T07:48:56.312Z,100118.02
2019-06-10T07:53:58.073Z,100113.56
2019-06-10T07:59:03.845Z,100116.53
2019-06-10T08:04:07.470Z,100113.56
2019-06-10T08:09:12.704Z,100111.22
2019-06-10T08:14:16.668Z,100108.92
2019-06-10T08:19:31.650Z,100107.88
2019-06-10T08:24:26.024Z,100113.22
2019-06-10T08:29:29.817Z,100113.56
2019-06-10T08:34:33.612Z,100115.47
2019-06-10T08:39:38.245Z,100116.16
2019-06-10T08:44:44.001Z,100116.16
2019-06-10T08:49:49.006Z,100136.05
2019-06-10T08:54:54.534Z,100122.50
2019-06-10T08:59:58.489Z,100130.94
2019-06-10T09:05:03.698Z,100142.86
2019-06-10T09:10:07.807Z,100138.58
2019-06-10T09:15:13.037Z,100138.58
2019-06-10T09:20:17.061Z,100132.27
2019-06-10T09:25:22.707Z,100137.58
2019-06-10T09:30:26.543Z,100135.43
2019-06-10T09:35:32.334Z,100132.23
2019-06-10T09:41:00.520Z,100138.63
2019-06-10T09:45:57.179Z,100138.63
2019-06-10T09:51:02.514Z,100147.34
2019-06-10T09:56:06.527Z,100158.59
2019-06-10T10:01:12.625Z,100154.05
2019-06-10T10:06:16.231Z,100147.15
2019-06-10T10:11:21.243Z,100154.17
2019-06-10T10:16:25.616Z,100146.95
2019-06-10T10:21:29.428Z,100147.80
2019-06-10T10:26:33.226Z,100145.34
2019-06-10T10:31:37.143Z,100144.99
2019-06-10T10:36:45.067Z,100144.99
2019-06-10T10:41:48.688Z,100139.59
2019-06-10T10:46:54.519Z,100135.89
2019-06-10T10:51:59.056Z,100135.89
2019-06-10T10:57:03.343Z,100121.81
2019-06-10T11:02:07.254Z,100102.53
2019-06-10T11:07:12.979Z,100103.41
2019-06-10T11:12:16.544Z,100097.48
2019-06-10T11:17:22.192Z,100093.27
2019-06-10T11:22:25.866Z,100093.27
2019-06-10T11:27:30.939Z,100075.81
2019-06-10T11:32:35.649Z,100075.81
2019-06-10T11:37:39.472Z,100065.59
2019-06-10T11:42:43.707Z,100055.98
2019-06-10T11:47:49.318Z,100055.98
2019-06-10T11:52:57.158Z,100044.37
2019-06-10T11:57:59.369Z,100028.83
2019-06-10T12:03:03.655Z,100028.83
2019-06-10T12:08:08.422Z,100011.47
2019-06-10T12:13:13.377Z,100002.93
2019-06-10T12:18:17.313Z,99989.03
2019-06-10T12:23:22.264Z,99991.47
2019-06-10T12:28:26.170Z,99969.69
2019-06-10T12:33:33.343Z,99965.88
2019-06-10T12:38:35.665Z,99962.96
2019-06-10T12:43:39.932Z,99945.63
2019-06-10T12:48:43.754Z,99945.63
2019-06-10T12:53:47.571Z,99936.12
2019-06-10T12:58:54.030Z,99927.01
2019-06-10T13:03:57.565Z,99930.39
2019-06-10T13:09:03.665Z,99916.26
2019-06-10T13:14:08.506Z,99898.91
2019-06-10T13:50:54.266Z,99866.31
2019-06-10T13:56:47.316Z,99866.31
2019-06-10T14:01:52.573Z,99847.91
2019-06-10T14:06:57.238Z,99856.55
2019-06-10T14:12:01.997Z,99856.69
2019-06-10T14:17:05.953Z,99828.19
2019-06-10T14:22:11.172Z,99836.80
2019-06-10T14:27:18.135Z,99836.80
2019-06-10T14:32:22.363Z,99826.34
2019-06-10T14:37:36.128Z,99826.34
2019-06-10T14:42:32.332Z,99828.91
2019-06-10T14:53:04.745Z,99832.80
2019-06-10T14:58:09.661Z,99830.14
2019-06-10T15:03:17.087Z,99825.25
2019-06-10T15:08:19.812Z,99816.41
2019-06-10T15:13:23.819Z,99816.41
2019-06-10T15:50:17.368Z,99773.52
2019-06-10T15:55:49.142Z,99761.86
2019-06-10T16:00:29.261Z,99768.28
2019-06-10T16:05:33.318Z,99768.28
2019-06-10T16:10:37.098Z,99757.98
2019-06-10T16:15:43.291Z,99765.44
2019-06-10T16:20:46.480Z,99765.44
2019-06-10T16:25:53.108Z,99763.05
2019-06-10T16:30:55.967Z,99752.41
2019-06-10T16:35:59.753Z,99762.03
2019-06-10T16:41:03.754Z,99775.88
2019-06-10T16:46:07.504Z,99775.88
2019-06-10T16:51:13.318Z,99778.08
2019-06-10T16:56:17.709Z,99781.28
2019-06-10T17:01:24.928Z,99781.28
2019-06-10T17:06:27.097Z,99776.77
2019-06-10T17:11:30.973Z,99777.23
2019-06-10T17:16:34.769Z,99794.33
2019-06-10T17:21:38.620Z,99775.71
2019-06-10T17:26:42.722Z,99780.65
2019-06-10T17:31:46.642Z,99768.66
2019-06-10T17:36:50.433Z,99756.49
2019-06-10T17:41:54.224Z,99756.49
2019-06-10T17:46:58.007Z,99729.47
2019-06-10T17:52:02.586Z,99747.67
2019-06-10T17:57:06.559Z,99747.67
2019-06-10T18:02:12.372Z,99757.00
2019-06-10T18:07:15.967Z,99757.00
2019-06-10T18:12:22.153Z,99756.97
2019-06-10T18:17:26.004Z,99763.59
2019-06-10T18:22:33.496Z,99749.73
2019-06-10T18:27:36.780Z,99704.97
2019-06-10T18:32:42.823Z,99679.30
2019-06-10T18:37:46.111Z,99679.30
2019-06-10T18:42:52.197Z,99659.55
2019-06-10T18:47:55.672Z,99659.55
2019-06-10T18:53:00.807Z,99728.65
2019-06-10T18:58:04.708Z,99728.00
2019-06-10T19:03:13.275Z,99746.19
2019-06-10T19:08:14.060Z,99762.09
2019-06-10T19:13:17.852Z,99764.13
2019-06-10T19:18:23.186Z,99829.17
2019-06-10T19:23:27.460Z,99888.13
2019-06-10T19:28:33.871Z,99888.13
2019-06-10T19:33:37.555Z,99903.80
2019-06-10T19:38:44.241Z,99903.80
2019-06-10T19:43:48.240Z,99922.59
2019-06-10T19:49:02.349Z,99850.58
2019-06-10T19:53:57.648Z,99834.37
2019-06-10T19:59:01.439Z,99798.72
2019-06-10T20:04:05.594Z,99721.22
2019-06-10T20:09:10.574Z,99744.33
2019-06-10T20:14:16.045Z,99729.09
2019-06-10T20:19:22.275Z,99707.98
2019-06-10T20:24:25.392Z,99707.98
2019-06-10T20:29:29.325Z,99699.90
2019-06-10T20:34:33.349Z,99683.69
2019-06-10T20:39:37.887Z,99682.45
2019-06-10T20:44:43.289Z,99682.95
2019-06-10T20:49:51.417Z,99682.95
2019-06-10T20:54:53.305Z,99643.92
2019-06-10T20:59:57.281Z,99643.92
2019-06-10T21:05:02.801Z,99626.00
2019-06-10T21:10:06.889Z,99648.66
2019-06-10T21:15:12.555Z,99680.96
2019-06-10T21:20:16.495Z,99695.31
2019-06-10T21:25:22.828Z,99716.48
2019-06-10T21:30:37.523Z,99749.80
2019-06-10T21:35:31.628Z,99759.45
2019-06-10T21:40:35.728Z,99796.84
2019-06-10T21:45:42.477Z,99796.84
2019-06-10T21:50:48.056Z,99795.20
2019-06-10T21:55:53.960Z,99800.11
2019-06-10T22:01:09.792Z,99806.18
2019-06-10T22:06:04.397Z,99806.18
2019-06-10T22:11:08.586Z,99787.73
2019-06-10T22:16:12.365Z,99774.05
2019-06-10T22:21:16.169Z,99774.05
2019-06-10T22:26:22.343Z,99761.73
2019-06-10T22:31:26.458Z,99761.73
2019-06-10T22:36:32.568Z,99756.66
2019-06-10T22:41:35.951Z,99709.33
2019-06-10T22:46:39.847Z,99709.33
2019-06-10T22:51:45.488Z,99743.84
2019-06-10T22:56:49.476Z,99743.84
2019-06-10T23:01:54.873Z,99749.75
2019-06-10T23:06:59.779Z,99722.56
2019-06-10T23:12:04.394Z,99722.23
2019-06-10T23:17:08.212Z,99721.89
2019-06-10T23:22:12.625Z,99737.25
2019-06-10T23:27:16.651Z,99758.87
2019-06-10T23:32:22.162Z,99756.16
2019-06-10T23:37:26.119Z,99758.02
2019-06-10T23:42:32.056Z,99758.87
2019-06-10T23:47:35.459Z,99772.76
2019-06-10T23:52:39.233Z,99775.74
2019-06-10T23:57:43.025Z,99775.74
